Terminal Aerodrome Forecast
Issued by NWS Chicago, IL

Home | Current Version | Previous Version | Graphics & Text | Print | Product List | Glossary On
Versions: 1 2 3 4 5 6 7 8 9 10 11 12 13 14 15 16 17 18 19 20 21 22 23 24 25
735
FTUS43 KLOT 110527
TAFRFD
TAF
KRFD 110527Z 1106/1206 VRB02KT P6SM FEW025 BKN100
      TEMPO 1110/1112 4SM -SHSN OVC040
     FM111200 18007KT P6SM SCT030 BKN050 BKN120 PROB30 1118/1120 3SM
      -RASN OVC050
     FM112100 VRB04KT 2SM -SN OVC025
     FM112300 33018G30KT P6SM -SHSN OVC025=

USA.gov is the U.S. government's official web portal to all federal, state and local government web resources and services.